Time;durP1;ratioP1;P1;durP2;ratioP2;P2;SDS_P1;SDS_P2;PMS_P1;PMS_P2;Temp;Humidity;BMP_temperature;BMP_pressure;BME280_temperature;BME280_humidity;BME280_pressure;Samples;Min_cycle;Max_cycle;Signal;HPM_P1;HPM_P2
2022/08/06 00:02:03;;;;;;;;;3.25;3.00;;;;;15.24;61.75;100744.75;5103810;28;9456;-61
2022/08/06 00:04:32;;;;;;;;;4.00;4.00;;;;;15.27;62.20;100736.41;5097869;28;8818;-62
2022/08/06 00:06:59;;;;;;;;;3.00;3.00;;;;;15.31;62.38;100745.91;5097758;28;8811;-62
2022/08/06 00:09:30;;;;;;;;;4.00;4.00;;;;;15.37;61.69;100743.56;5102266;28;8820;-63
2022/08/06 00:12:17;;;;;;;;;3.25;3.25;;;;;15.43;61.67;100748.41;5105161;28;8818;-61
2022/08/06 00:14:45;;;;;;;;;3.00;3.00;;;;;15.46;61.70;100745.47;5098926;28;8818;-62
2022/08/06 00:17:13;;;;;;;;;2.00;2.00;;;;;15.49;61.54;100747.03;5098294;28;8841;-62
2022/08/06 00:19:42;;;;;;;;;3.00;2.50;;;;;15.53;61.39;100748.44;5104213;28;9531;-61
2022/08/06 00:22:26;;;;;;;;;3.00;3.00;;;;;15.57;61.49;100748.06;5118046;28;9041;-62
2022/08/06 00:24:55;;;;;;;;;3.00;3.00;;;;;15.62;61.20;100756.56;5109275;28;8821;-61
2022/08/06 00:27:25;;;;;;;;;2.50;1.00;;;;;15.66;61.07;100751.78;5113733;28;8834;-63
2022/08/06 00:29:56;;;;;;;;;2.50;2.50;;;;;15.68;61.29;100756.03;5116717;28;9481;-62
2022/08/06 00:32:32;;;;;;;;;1.00;1.00;;;;;15.69;61.41;100756.91;5117876;28;8942;-61
2022/08/06 00:35:00;;;;;;;;;3.00;1.00;;;;;15.70;61.05;100754.06;5133738;27;8826;-62
2022/08/06 00:37:31;;;;;;;;;2.00;1.00;;;;;15.72;61.15;100759.28;5138193;27;8906;-63
2022/08/06 00:40:19;;;;;;;;;4.00;4.00;;;;;15.73;61.40;100758.31;5138143;27;8969;-61
2022/08/06 00:42:50;;;;;;;;;1.00;1.00;;;;;15.72;61.44;100757.47;5136754;27;8844;-61
2022/08/06 00:45:21;;;;;;;;;3.00;3.00;;;;;15.75;60.93;100757.19;5137801;27;8822;-61
2022/08/06 00:47:52;;;;;;;;;1.00;1.00;;;;;15.77;61.04;100763.28;5138402;27;8802;-61
2022/08/06 00:50:28;;;;;;;;;2.50;1.00;;;;;15.79;60.59;100755.09;5137108;27;8878;-61
2022/08/06 00:52:57;;;;;;;;;1.00;1.00;;;;;15.76;60.88;100761.56;5138482;27;8898;-62
2022/08/06 00:55:26;;;;;;;;;3.25;3.00;;;;;15.72;61.35;100757.47;5127455;27;8854;-62
2022/08/06 00:58:02;;;;;;;;;1.50;1.00;;;;;15.65;60.77;100756.31;5117474;27;8883;-61
2022/08/06 01:00:30;;;;;;;;;1.00;1.00;;;;;15.58;61.82;100759.66;5120231;27;8826;-61
2022/08/06 01:03:05;;;;;;;;;2.50;2.50;;;;;15.55;61.35;100757.25;5136914;27;8838;-62
2022/08/06 01:05:45;;;;;;;;;4.00;3.00;;;;;15.51;61.29;100764.72;5122482;27;8827;-67
2022/08/06 01:08:33;;;;;;;;;3.00;3.00;;;;;15.48;61.63;100766.81;5116336;28;8844;-61
2022/08/06 01:11:08;;;;;;;;;3.00;1.00;;;;;15.45;61.45;100775.13;5116446;28;8966;-61
2022/08/06 01:13:36;;;;;;;;;3.50;3.00;;;;;15.42;61.87;100772.69;5116189;27;9609;-62
2022/08/06 01:16:23;;;;;;;;;3.50;3.50;;;;;15.40;61.94;100772.81;5119980;27;9496;-64
2022/08/06 01:18:56;;;;;;;;;1.00;1.00;;;;;15.38;62.13;100779.31;5135198;27;9510;-62
2022/08/06 01:21:25;;;;;;;;;3.50;3.00;;;;;15.33;62.40;100779.69;5138146;27;8809;-61
2022/08/06 01:24:13;;;;;;;;;1.00;1.00;;;;;15.27;62.28;100784.72;5137162;27;8842;-63
2022/08/06 01:26:41;;;;;;;;;2.00;1.00;;;;;15.20;62.45;100780.84;5137568;27;8825;-62
2022/08/06 01:29:08;;;;;;;;;3.00;3.00;;;;;15.14;62.51;100790.28;5128708;27;9612;-62
2022/08/06 01:31:40;;;;;;;;;2.00;2.00;;;;;15.07;62.25;100782.88;5118016;27;8824;-62
2022/08/06 01:34:09;;;;;;;;;3.00;3.00;;;;;15.01;62.84;100781.56;5131851;27;8824;-61
2022/08/06 01:36:39;;;;;;;;;2.00;2.00;;;;;14.95;62.71;100786.59;5117010;28;8811;-62
2022/08/06 01:39:14;;;;;;;;;1.00;1.00;;;;;14.89;62.66;100785.31;5116701;28;8909;-61
2022/08/06 01:41:49;;;;;;;;;3.00;3.00;;;;;14.84;62.80;100783.97;5118021;27;8960;-62
2022/08/06 01:44:25;;;;;;;;;1.00;1.00;;;;;14.78;62.77;100787.16;5127499;27;8886;-62
2022/08/06 01:46:55;;;;;;;;;1.00;1.00;;;;;14.72;62.99;100785.00;5137400;27;8826;-62
2022/08/06 01:49:23;;;;;;;;;1.50;1.00;;;;;14.67;63.41;100792.56;5121646;27;8829;-61
2022/08/06 01:51:54;;;;;;;;;1.00;1.00;;;;;14.61;63.10;100787.69;5115973;28;8834;-62
2022/08/06 01:54:42;;;;;;;;;2.50;2.50;;;;;14.55;63.62;100796.25;5116833;28;8808;-63
2022/08/06 01:57:10;;;;;;;;;4.00;3.25;;;;;14.46;63.45;100794.31;5116514;28;8808;-61
2022/08/06 01:59:58;;;;;;;;;1.00;1.00;;;;;14.35;63.87;100797.88;5116692;28;8847;-62
2022/08/06 02:02:27;;;;;;;;;1.00;1.00;;;;;14.23;64.55;100792.66;5117224;28;8832;-61
2022/08/06 02:04:59;;;;;;;;;1.00;1.00;;;;;14.12;63.98;100806.06;5128543;27;8857;-62
2022/08/06 02:07:36;;;;;;;;;2.50;1.00;;;;;14.00;64.39;100812.38;5136705;27;8821;-62
2022/08/06 02:10:23;;;;;;;;;2.25;2.25;;;;;13.90;65.14;100801.56;5136925;27;8838;-62
2022/08/06 02:12:52;;;;;;;;;2.25;2.00;;;;;13.81;64.58;100801.44;5141294;27;8833;-63
2022/08/06 02:15:19;;;;;;;;;1.50;1.00;;;;;13.73;65.54;100810.06;5141202;27;9520;-64
2022/08/06 02:17:48;;;;;;;;;3.00;2.50;;;;;13.66;65.23;100806.16;5141940;27;8821;-62
2022/08/06 02:20:33;;;;;;;;;3.00;1.00;;;;;13.61;65.24;100807.50;5124164;27;8847;-61
2022/08/06 02:23:04;;;;;;;;;4.00;3.75;;;;;13.56;65.19;100815.91;5120747;28;8851;-61
2022/08/06 02:25:35;;;;;;;;;2.50;1.00;;;;;13.54;65.44;100817.84;5123862;27;8821;-61
2022/08/06 02:28:02;;;;;;;;;3.00;3.00;;;;;13.52;65.80;100821.63;5141191;27;8861;-61
2022/08/06 02:30:30;;;;;;;;;3.00;1.00;;;;;13.49;65.80;100816.47;5140788;27;8936;-62
2022/08/06 02:33:08;;;;;;;;;4.50;3.75;;;;;13.43;65.71;100822.34;5140745;27;8829;-62
2022/08/06 02:35:37;;;;;;;;;3.00;3.00;;;;;13.37;65.66;100820.13;5124643;27;8932;-62
2022/08/06 02:38:06;;;;;;;;;3.50;3.50;;;;;13.31;66.00;100825.94;5141076;27;8872;-61
2022/08/06 02:40:36;;;;;;;;;3.00;2.50;;;;;13.25;65.89;100829.06;5120623;27;8832;-61
2022/08/06 02:43:06;;;;;;;;;3.00;3.00;;;;;13.19;65.80;100829.53;5121308;27;8812;-62
2022/08/06 02:45:35;;;;;;;;;1.00;1.00;;;;;13.16;66.03;100829.78;5132160;27;8944;-62
2022/08/06 02:48:05;;;;;;;;;3.00;1.50;;;;;13.13;65.99;100824.69;5139293;27;8822;-61
2022/08/06 02:50:35;;;;;;;;;2.50;2.50;;;;;13.07;66.26;100825.97;5133515;27;8958;-61
2022/08/06 02:53:04;;;;;;;;;1.50;1.50;;;;;13.03;65.81;100820.97;5119729;27;8828;-62
2022/08/06 02:55:51;;;;;;;;;2.00;2.00;;;;;12.98;66.34;100825.84;5120098;27;8834;-63
2022/08/06 02:58:19;;;;;;;;;1.00;1.00;;;;;12.92;66.12;100821.75;5135995;27;8810;-63
2022/08/06 03:01:03;;;;;;;;;1.00;1.00;;;;;12.87;66.56;100823.94;5120133;27;8875;-63
2022/08/06 03:03:35;;;;;;;;;2.50;2.50;;;;;12.83;66.46;100830.47;5119771;27;8851;-64
2022/08/06 03:06:20;;;;;;;;;3.50;3.50;;;;;12.76;66.63;100825.72;5119759;28;8844;-63
2022/08/06 03:08:52;;;;;;;;;3.25;3.00;;;;;12.69;66.80;100833.31;5133053;27;8867;-62
2022/08/06 03:11:20;;;;;;;;;2.00;2.00;;;;;12.63;67.00;100838.25;5138967;27;8826;-62
2022/08/06 03:13:49;;;;;;;;;3.00;2.00;;;;;12.56;66.85;100839.69;5119011;28;8832;-61
2022/08/06 03:16:18;;;;;;;;;1.00;1.00;;;;;12.50;67.19;100845.47;5119716;28;8830;-61
2022/08/06 03:18:51;;;;;;;;;3.00;3.00;;;;;12.45;66.85;100840.47;5120249;27;8804;-62
2022/08/06 03:21:39;;;;;;;;;2.00;1.50;;;;;12.40;67.30;100849.78;5118724;28;8941;-61
2022/08/06 03:24:06;;;;;;;;;1.00;1.00;;;;;12.34;67.12;100850.22;5118879;27;8815;-62
2022/08/06 03:26:34;;;;;;;;;3.00;3.00;;;;;12.30;67.03;100844.25;5119840;27;8827;-61
2022/08/06 03:29:02;;;;;;;;;3.00;1.00;;;;;12.27;67.42;100855.16;5119219;27;8808;-62
2022/08/06 03:31:30;;;;;;;;;1.00;1.00;;;;;12.23;67.66;100859.00;5119456;28;8819;-62
2022/08/06 03:34:00;;;;;;;;;0.25;0.25;;;;;12.20;67.58;100861.03;5111750;28;9630;-62
2022/08/06 03:36:30;;;;;;;;;1.00;1.00;;;;;12.15;67.17;100863.19;5119101;28;8900;-62
2022/08/06 03:38:58;;;;;;;;;3.25;3.25;;;;;12.08;67.75;100869.94;5117961;28;8831;-62
2022/08/06 03:41:27;;;;;;;;;0.25;0.25;;;;;12.00;67.98;100869.63;5117703;28;8840;-61
2022/08/06 03:44:01;;;;;;;;;1.00;1.00;;;;;11.91;68.38;100874.75;5107140;28;8975;-61
2022/08/06 03:46:31;;;;;;;;;2.50;1.50;;;;;11.87;68.78;100874.13;5118735;28;8850;-61
2022/08/06 03:48:59;;;;;;;;;2.00;2.00;;;;;11.85;68.03;100868.03;5102756;28;8911;-61
2022/08/06 03:51:27;;;;;;;;;1.00;1.00;;;;;11.83;68.48;100869.94;5098596;28;8846;-61
2022/08/06 03:54:14;;;;;;;;;3.25;3.25;;;;;11.83;68.62;100877.09;5106669;28;8827;-62
2022/08/06 03:56:54;;;;;;;;;3.00;3.00;;;;;11.84;68.36;100871.63;5118277;28;8796;-63
2022/08/06 03:59:23;;;;;;;;;3.00;2.50;;;;;11.88;68.52;100880.28;5118967;28;8808;-62
2022/08/06 04:02:04;;;;;;;;;1.00;1.00;;;;;11.90;68.33;100881.06;5119191;28;8828;-62
2022/08/06 04:04:33;;;;;;;;;1.00;1.00;;;;;11.93;68.65;100878.16;5111446;28;8818;-63
2022/08/06 04:07:01;;;;;;;;;1.00;1.00;;;;;11.93;68.08;100879.88;5098201;28;8932;-62
2022/08/06 04:09:29;;;;;;;;;3.00;2.50;;;;;11.95;67.99;100890.44;5109131;28;8816;-63
2022/08/06 04:12:16;;;;;;;;;2.00;1.00;;;;;11.95;68.05;100890.44;5116250;28;8819;-63
2022/08/06 04:15:04;;;;;;;;;1.00;1.00;;;;;11.95;67.97;100895.78;5106737;28;8874;-62
2022/08/06 04:17:34;;;;;;;;;3.00;3.00;;;;;11.96;67.99;100892.16;5116750;28;8800;-61
2022/08/06 04:20:07;;;;;;;;;1.00;1.00;;;;;11.98;68.02;100894.72;5116798;28;8836;-61
2022/08/06 04:22:35;;;;;;;;;3.00;3.00;;;;;11.98;68.11;100895.56;5116679;28;8828;-62
2022/08/06 04:25:22;;;;;;;;;0.50;0.50;;;;;12.01;67.56;100900.69;5115802;28;8851;-63
2022/08/06 04:27:51;;;;;;;;;3.50;3.00;;;;;12.00;68.01;100899.84;5115678;28;8887;-61
2022/08/06 04:30:20;;;;;;;;;2.00;1.00;;;;;12.04;67.63;100903.13;5117227;28;8816;-63
2022/08/06 04:32:51;;;;;;;;;3.00;3.00;;;;;12.04;67.73;100895.13;5117535;28;8843;-62
2022/08/06 04:35:27;;;;;;;;;3.25;3.00;;;;;12.08;67.38;100899.31;5123050;27;8839;-60
2022/08/06 04:38:15;;;;;;;;;1.00;1.00;;;;;12.11;67.54;100894.59;5116435;27;8836;-61
2022/08/06 04:40:43;;;;;;;;;3.50;3.00;;;;;12.15;67.23;100901.41;5117742;28;8840;-61
2022/08/06 04:43:20;;;;;;;;;3.00;3.00;;;;;12.22;67.05;100899.16;5119067;27;8812;-62
2022/08/06 04:45:49;;;;;;;;;1.00;1.00;;;;;12.29;66.89;100897.75;5117816;28;8808;-61
2022/08/06 04:48:37;;;;;;;;;3.00;3.00;;;;;12.38;67.02;100905.13;5117461;28;8831;-62
2022/08/06 04:51:13;;;;;;;;;0.00;0.00;;;;;12.47;66.73;100909.81;5117627;28;8844;-62
2022/08/06 04:54:00;;;;;;;;;2.50;1.00;;;;;12.59;66.57;100908.91;5117691;28;8836;-62
2022/08/06 04:56:30;;;;;;;;;1.00;1.00;;;;;12.72;66.58;100904.41;5117942;28;8851;-62
2022/08/06 04:59:04;;;;;;;;;2.00;2.00;;;;;12.78;65.97;100920.84;5118864;27;8826;-61
2022/08/06 05:01:34;;;;;;;;;1.00;1.00;;;;;12.80;66.01;100912.69;5117254;28;8839;-62
2022/08/06 05:04:22;;;;;;;;;1.50;1.50;;;;;12.80;66.25;100915.38;5122955;27;8822;-62
2022/08/06 05:06:50;;;;;;;;;3.50;3.50;;;;;12.83;66.01;100923.19;5136101;27;8821;-62
2022/08/06 05:09:20;;;;;;;;;1.00;1.00;;;;;12.88;66.05;100924.56;5137561;27;8814;-62
2022/08/06 05:12:08;;;;;;;;;3.00;3.00;;;;;12.97;66.08;100931.06;5137712;27;8838;-62
2022/08/06 05:14:36;;;;;;;;;3.00;3.00;;;;;13.05;65.71;100926.03;5129223;27;8901;-62
2022/08/06 05:17:04;;;;;;;;;3.25;3.00;;;;;13.15;65.52;100930.56;5116857;28;8843;-62
2022/08/06 05:19:35;;;;;;;;;2.00;1.50;;;;;13.23;65.14;100925.47;5123739;27;8814;-62
2022/08/06 05:22:02;;;;;;;;;2.00;2.00;;;;;13.31;65.52;100935.63;5137730;27;8934;-62
2022/08/06 05:24:38;;;;;;;;;4.00;3.00;;;;;13.41;65.33;100933.94;5137386;27;8999;-61
2022/08/06 05:27:26;;;;;;;;;4.00;4.00;;;;;13.49;65.32;100935.09;5137754;27;8843;-61
2022/08/06 05:30:14;;;;;;;;;3.00;3.00;;;;;13.60;64.94;100936.97;5119928;27;8961;-61
2022/08/06 05:32:42;;;;;;;;;3.75;3.75;;;;;13.73;64.16;100940.41;5117093;28;8901;-62
2022/08/06 05:35:11;;;;;;;;;3.75;3.75;;;;;13.87;64.60;100935.69;5100248;28;8834;-62
2022/08/06 05:37:45;;;;;;;;;3.00;3.00;;;;;14.03;64.45;100935.38;5116881;28;8828;-62
2022/08/06 05:40:33;;;;;;;;;4.00;3.00;;;;;14.17;63.70;100937.78;5116545;28;8813;-62
2022/08/06 05:43:20;;;;;;;;;3.00;3.00;;;;;14.26;63.59;100948.69;5114661;28;8812;-63
2022/08/06 05:45:49;;;;;;;;;0.50;0.50;;;;;14.32;63.53;100940.16;5102659;28;8810;-61
2022/08/06 05:48:16;;;;;;;;;4.00;3.25;;;;;14.45;63.38;100942.72;5112617;28;9449;-62
2022/08/06 05:50:55;;;;;;;;;2.00;2.00;;;;;14.56;63.51;100948.09;5114897;28;8811;-61
2022/08/06 05:53:23;;;;;;;;;4.00;4.00;;;;;14.66;62.99;100946.38;5115100;28;8847;-62
2022/08/06 05:56:11;;;;;;;;;5.00;5.00;;;;;14.81;62.78;100950.50;5115730;28;8847;-62
2022/08/06 05:58:58;;;;;;;;;3.50;3.00;;;;;14.98;62.23;100948.16;5116010;28;8856;-62
2022/08/06 06:01:27;;;;;;;;;3.25;3.25;;;;;15.18;62.73;100954.56;5110474;28;8828;-62
2022/08/06 06:03:54;;;;;;;;;3.75;3.75;;;;;15.36;62.26;100958.44;5096290;28;8822;-62
2022/08/06 06:06:22;;;;;;;;;4.00;4.00;;;;;15.50;61.45;100953.63;5103068;28;8820;-62
2022/08/06 06:08:50;;;;;;;;;4.00;3.50;;;;;15.60;61.54;100953.69;5115474;28;8820;-62
2022/08/06 06:11:25;;;;;;;;;4.00;3.25;;;;;15.74;61.60;100948.00;5115542;28;9493;-62
2022/08/06 06:14:13;;;;;;;;;5.00;5.00;;;;;15.85;60.63;100956.03;5115311;28;9548;-62
2022/08/06 06:16:41;;;;;;;;;6.25;5.00;;;;;15.92;61.04;100957.22;5115749;28;8954;-62
2022/08/06 06:19:11;;;;;;;;;3.00;2.00;;;;;15.99;60.68;100953.84;5115439;28;9522;-62
2022/08/06 06:21:42;;;;;;;;;5.00;5.00;;;;;16.08;61.06;100947.69;5108907;28;8863;-61
2022/08/06 06:24:17;;;;;;;;;6.50;5.50;;;;;16.18;60.50;100959.34;5106200;28;8904;-62
2022/08/06 06:26:46;;;;;;;;;5.50;5.00;;;;;16.31;59.98;100960.84;5095260;28;8826;-62
2022/08/06 06:29:16;;;;;;;;;6.50;6.00;;;;;16.46;60.33;100956.84;5095527;28;8857;-61
2022/08/06 06:32:04;;;;;;;;;3.00;3.00;;;;;16.66;60.23;100952.41;5099263;28;8801;-62
2022/08/06 06:34:34;;;;;;;;;5.50;5.50;;;;;16.82;59.65;100961.66;5128770;27;8814;-62
2022/08/06 06:37:04;;;;;;;;;6.25;5.50;;;;;16.97;60.08;100962.97;5136670;27;8929;-61
2022/08/06 06:39:33;;;;;;;;;0.50;0.50;;;;;17.15;59.59;100957.78;5136825;27;8817;-61
2022/08/06 06:42:07;;;;;;;;;6.00;5.50;;;;;17.31;59.27;100963.47;5136144;27;8834;-60
2022/08/06 06:44:36;;;;;;;;;7.00;6.00;;;;;17.39;59.27;100964.50;5133558;27;8821;-62
2022/08/06 06:47:23;;;;;;;;;6.75;6.00;;;;;17.56;58.56;100963.81;5115696;28;8835;-62
2022/08/06 06:49:55;;;;;;;;;5.50;5.00;;;;;17.66;58.83;100964.66;5136239;27;8828;-61
2022/08/06 06:52:30;;;;;;;;;6.00;6.00;;;;;17.78;58.61;100963.50;5136928;27;8943;-61
2022/08/06 06:55:00;;;;;;;;;3.00;3.00;;;;;17.91;58.03;100963.22;5134181;27;8833;-62
2022/08/06 06:57:38;;;;;;;;;7.00;6.00;;;;;18.04;57.84;100972.72;5138695;27;8845;-61
2022/08/06 07:00:11;;;;;;;;;4.00;4.00;;;;;18.15;58.09;100975.22;5139976;27;8812;-62
2022/08/06 07:03:01;;;;;;;;;6.20;4.40;;;;;18.25;57.88;100986.88;5139823;27;8826;-62
2022/08/06 07:05:29;;;;;;;;;6.00;6.00;;;;;18.31;57.60;100982.78;5122220;27;8816;-61
2022/08/06 07:08:16;;;;;;;;;7.00;6.00;;;;;18.38;57.74;100982.03;5118324;28;8847;-62
2022/08/06 07:10:58;;;;;;;;;6.00;6.00;;;;;18.39;57.85;100986.44;5118593;27;8978;-61
2022/08/06 07:13:27;;;;;;;;;3.80;3.80;;;;;18.46;57.23;100982.19;5123979;27;8804;-61
2022/08/06 07:16:14;;;;;;;;;6.60;6.00;;;;;18.56;57.85;100987.50;5138830;27;8952;-61
2022/08/06 07:19:02;;;;;;;;;7.20;7.20;;;;;18.59;57.47;100993.47;5140029;27;8872;-61
2022/08/06 07:21:30;;;;;;;;;3.40;3.40;;;;;18.65;57.28;100997.41;5133358;27;8856;-62
2022/08/06 07:23:58;;;;;;;;;2.20;2.20;;;;;18.72;57.33;100999.41;5138887;27;8833;-62
2022/08/06 07:26:36;;;;;;;;;6.00;6.00;;;;;18.82;57.68;101002.91;5139092;27;8829;-61
2022/08/06 07:29:17;;;;;;;;;3.20;3.00;;;;;18.90;57.71;101005.69;5128236;27;8824;-62
2022/08/06 07:32:05;;;;;;;;;3.00;3.00;;;;;18.98;57.27;101004.97;5120353;27;8937;-62
2022/08/06 07:34:37;;;;;;;;;3.40;3.40;;;;;19.08;57.20;101001.22;5104131;28;8841;-61
2022/08/06 07:37:09;;;;;;;;;3.00;3.00;;;;;19.19;57.29;101008.28;5098364;28;8830;-62
2022/08/06 07:39:56;;;;;;;;;3.00;3.00;;;;;19.29;56.46;101001.84;5097742;28;8868;-62
2022/08/06 07:42:24;;;;;;;;;2.00;2.00;;;;;19.37;56.71;101001.94;5096274;28;8965;-62
2022/08/06 07:44:55;;;;;;;;;3.00;2.00;;;;;19.46;56.17;101003.72;5097409;28;8859;-62
2022/08/06 07:47:26;;;;;;;;;3.00;3.00;;;;;19.50;56.46;101002.41;5096677;28;8952;-61
2022/08/06 07:50:12;;;;;;;;;5.60;5.60;;;;;19.58;56.15;101002.47;5102651;28;8816;-61
2022/08/06 07:52:40;;;;;;;;;4.00;3.80;;;;;19.69;56.26;101001.41;5116315;28;8923;-62
2022/08/06 07:55:10;;;;;;;;;3.20;3.20;;;;;19.66;56.07;101001.72;5117880;28;8820;-62
2022/08/06 07:57:39;;;;;;;;;0.80;0.80;;;;;19.57;56.51;101005.34;5117617;28;8951;-61
2022/08/06 08:00:24;;;;;;;;;1.00;1.00;;;;;19.56;56.52;101009.91;5115226;28;8838;-61
2022/08/06 08:08:48;;;;;;;;;0.40;0.40;;;;;20.12;55.18;101005.06;5096984;28;8948;-62
2022/08/06 08:11:16;;;;;;;;;1.00;1.00;;;;;20.27;55.72;101005.34;5096602;28;8825;-62
2022/08/06 08:13:47;;;;;;;;;0.80;0.80;;;;;20.39;54.87;101004.91;5096608;28;8830;-62
2022/08/06 08:16:22;;;;;;;;;0.60;0.60;;;;;20.51;54.52;101002.78;5096540;28;8822;-61
2022/08/06 08:18:59;;;;;;;;;0.00;0.00;;;;;20.62;54.61;100997.13;5113001;28;8846;-62
2022/08/06 08:21:35;;;;;;;;;1.20;1.20;;;;;20.70;54.29;101003.41;5113420;28;8844;-63
2022/08/06 08:24:03;;;;;;;;;1.00;1.00;;;;;20.77;53.93;101001.75;5116270;28;8816;-62
2022/08/06 08:26:30;;;;;;;;;0.00;0.00;;;;;20.80;54.27;101001.47;5116950;28;8947;-62
2022/08/06 08:29:18;;;;;;;;;1.00;1.00;;;;;20.88;53.87;101008.78;5105102;28;8884;-62
2022/08/06 08:31:55;;;;;;;;;0.20;0.20;;;;;20.91;53.72;101001.19;5098339;28;8849;-62
2022/08/06 08:34:27;;;;;;;;;1.00;1.00;;;;;20.93;53.68;101007.28;5107853;28;8858;-62
2022/08/06 08:36:56;;;;;;;;;1.00;1.00;;;;;20.94;53.59;101011.69;5115684;28;8812;-63
2022/08/06 08:39:27;;;;;;;;;0.60;0.60;;;;;21.00;53.91;101005.63;5113686;28;9660;-63
2022/08/06 08:41:59;;;;;;;;;0.60;0.60;;;;;20.95;53.89;101005.28;5115762;28;8839;-62
2022/08/06 08:44:28;;;;;;;;;1.00;1.00;;;;;20.98;53.65;101005.81;5116110;28;8874;-63
2022/08/06 08:46:58;;;;;;;;;1.00;0.80;;;;;20.91;53.65;101006.63;5113685;28;8840;-63
2022/08/06 08:49:25;;;;;;;;;0.20;0.00;;;;;20.80;54.30;101009.59;5103679;28;8808;-63
2022/08/06 08:51:53;;;;;;;;;1.00;1.00;;;;;20.80;54.27;101013.13;5113881;28;8836;-62
2022/08/06 08:54:21;;;;;;;;;2.00;1.80;;;;;20.83;54.23;101011.97;5115479;28;8963;-62
2022/08/06 08:56:50;;;;;;;;;0.40;0.40;;;;;21.03;53.20;101013.47;5105000;28;8848;-63
2022/08/06 08:59:37;;;;;;;;;1.00;1.00;;;;;21.20;53.08;101017.91;5115700;28;9655;-63
2022/08/06 09:02:26;;;;;;;;;1.00;1.00;;;;;21.19;52.86;101005.38;5094895;28;9511;-62
2022/08/06 09:04:55;;;;;;;;;1.40;1.40;;;;;21.07;53.51;101009.38;5094838;28;8826;-63
2022/08/06 09:07:26;;;;;;;;;0.00;0.00;;;;;20.99;53.50;101012.06;5094568;28;8854;-63
2022/08/06 09:10:03;;;;;;;;;1.00;1.00;;;;;20.94;53.67;101008.97;5095909;28;8846;-63
2022/08/06 09:12:32;;;;;;;;;1.00;1.00;;;;;21.03;53.26;101008.03;5099108;28;8834;-63
2022/08/06 09:15:12;;;;;;;;;1.00;1.00;;;;;21.29;52.74;101006.09;5116706;28;8835;-63
2022/08/06 09:17:43;;;;;;;;;1.00;1.00;;;;;21.57;52.18;100999.41;5116019;28;8946;-63
2022/08/06 09:20:31;;;;;;;;;0.60;0.00;;;;;21.65;51.96;101004.84;5116400;28;8832;-63
2022/08/06 09:22:59;;;;;;;;;1.00;1.00;;;;;21.56;52.45;101008.56;5116012;28;8891;-63
2022/08/06 09:25:27;;;;;;;;;1.00;1.00;;;;;21.43;52.82;101010.88;5099158;28;8862;-63
2022/08/06 09:27:57;;;;;;;;;2.00;1.00;;;;;21.33;52.58;101011.00;5116257;28;8865;-63
2022/08/06 09:30:26;;;;;;;;;1.00;0.40;;;;;21.53;52.65;101000.72;5096782;28;8818;-62
2022/08/06 09:32:57;;;;;;;;;0.00;0.00;;;;;21.82;51.65;101006.59;5095596;28;8836;-62
2022/08/06 09:35:45;;;;;;;;;1.00;1.00;;;;;22.13;51.25;101002.19;5108007;28;8852;-62
2022/08/06 09:38:13;;;;;;;;;1.00;1.00;;;;;22.37;50.97;101004.88;5115096;28;8822;-61
2022/08/06 09:40:43;;;;;;;;;1.00;1.00;;;;;22.65;50.12;101006.22;5113452;28;8816;-61
2022/08/06 09:43:11;;;;;;;;;0.20;0.20;;;;;22.92;49.37;101005.81;5109654;28;9894;-61
2022/08/06 09:45:42;;;;;;;;;1.00;1.00;;;;;23.19;48.99;100999.94;5111513;28;8831;-62
2022/08/06 09:48:10;;;;;;;;;0.00;0.00;;;;;23.57;48.02;100999.06;5111960;28;8831;-62
2022/08/06 09:50:48;;;;;;;;;0.00;0.00;;;;;24.04;47.16;101002.53;5113760;28;8908;-62
2022/08/06 09:53:18;;;;;;;;;0.00;0.00;;;;;24.41;46.43;100994.38;5111827;28;8844;-62
2022/08/06 09:55:48;;;;;;;;;0.00;0.00;;;;;24.89;45.70;100993.88;5111855;28;8812;-62
2022/08/06 09:58:16;;;;;;;;;0.80;0.00;;;;;25.39;44.92;101002.13;5112101;28;8824;-62
2022/08/06 10:00:44;;;;;;;;;0.00;0.00;;;;;25.83;44.68;100993.63;5113380;28;8948;-63
2022/08/06 10:03:17;;;;;;;;;1.00;1.00;;;;;26.42;43.78;101002.38;5113251;28;8871;-63
2022/08/06 10:06:05;;;;;;;;;0.00;0.00;;;;;26.97;42.78;100994.16;5112783;28;8848;-63
2022/08/06 10:08:41;;;;;;;;;0.00;0.00;;;;;27.47;41.58;101004.75;5113706;28;8832;-63
2022/08/06 10:11:08;;;;;;;;;1.00;1.00;;;;;27.81;41.38;101007.41;5113249;28;8820;-64
2022/08/06 10:13:39;;;;;;;;;0.80;0.40;;;;;27.56;42.11;101004.34;5113102;28;8824;-64
2022/08/06 10:16:15;;;;;;;;;1.00;1.00;;;;;27.66;42.28;101007.56;5112958;28;8979;-63
2022/08/06 10:18:43;;;;;;;;;0.60;0.00;;;;;27.45;42.99;101010.41;5096746;28;8902;-63
2022/08/06 10:21:23;;;;;;;;;0.00;0.00;;;;;27.52;43.07;101013.16;5095040;28;8836;-63
2022/08/06 10:23:53;;;;;;;;;1.00;1.00;;;;;27.46;43.00;101006.63;5094444;28;8834;-63
2022/08/06 10:26:21;;;;;;;;;0.00;0.00;;;;;26.75;43.97;101015.28;5092267;28;8860;-63
2022/08/06 10:28:49;;;;;;;;;0.00;0.00;;;;;26.02;44.80;101017.56;5099774;28;8950;-62
2022/08/06 10:31:17;;;;;;;;;0.60;0.60;;;;;25.46;46.12;101022.13;5111576;28;8894;-63
2022/08/06 10:33:48;;;;;;;;;0.00;0.00;;;;;25.08;46.86;101021.41;5124687;27;8822;-63
2022/08/06 10:36:23;;;;;;;;;0.00;0.00;;;;;25.41;45.97;101019.16;5137259;27;8814;-63
2022/08/06 10:38:53;;;;;;;;;0.40;0.40;;;;;25.41;46.18;101019.16;5137536;27;9499;-63
2022/08/06 10:41:21;;;;;;;;;0.00;0.00;;;;;25.14;46.13;101015.19;5138523;27;8817;-62
2022/08/06 10:44:09;;;;;;;;;0.60;0.60;;;;;24.69;46.85;101019.97;5139551;27;8829;-62
2022/08/06 10:46:37;;;;;;;;;0.80;0.80;;;;;24.78;47.06;101018.84;5137890;27;8838;-63
2022/08/06 10:49:08;;;;;;;;;1.00;1.00;;;;;25.16;45.32;101009.53;5139951;27;8852;-62
2022/08/06 10:51:56;;;;;;;;;0.00;0.00;;;;;25.17;45.56;101013.97;5118813;27;8836;-63
2022/08/06 10:54:25;;;;;;;;;0.00;0.00;;;;;25.16;45.39;101006.81;5120147;27;8926;-63
2022/08/06 10:56:54;;;;;;;;;0.00;0.00;;;;;25.43;45.13;101014.34;5118981;28;9481;-62
2022/08/06 10:59:22;;;;;;;;;0.00;0.00;;;;;25.56;45.04;101012.59;5128330;27;8884;-63
2022/08/06 11:02:07;;;;;;;;;0.00;0.00;;;;;26.16;42.51;101003.00;5132051;27;8816;-64
2022/08/06 11:04:42;;;;;;;;;0.00;0.00;;;;;26.96;42.10;101006.16;5118250;27;8824;-65
2022/08/06 11:07:12;;;;;;;;;0.00;0.00;;;;;27.90;40.86;101000.66;5118157;28;8844;-63
2022/08/06 11:09:59;;;;;;;;;0.00;0.00;;;;;28.82;39.70;100996.94;5117897;27;8832;-63
2022/08/06 11:12:30;;;;;;;;;1.00;1.00;;;;;29.54;38.23;100992.06;5118178;28;8840;-63
2022/08/06 11:14:58;;;;;;;;;0.00;0.00;;;;;30.29;37.64;100990.13;5121547;27;8834;-62
2022/08/06 11:17:28;;;;;;;;;0.00;0.00;;;;;31.07;36.23;100986.63;5139028;27;8842;-62
2022/08/06 11:20:02;;;;;;;;;0.00;0.00;;;;;31.47;36.22;100988.69;5135811;27;8916;-63
2022/08/06 11:22:41;;;;;;;;;0.00;0.00;;;;;31.93;35.01;100985.34;5117698;27;8967;-63
2022/08/06 11:25:20;;;;;;;;;0.00;0.00;;;;;32.29;35.28;100986.03;5116798;28;8862;-62
2022/08/06 11:27:53;;;;;;;;;0.00;0.00;;;;;32.61;34.45;100986.56;5118756;28;8836;-63
2022/08/06 11:30:32;;;;;;;;;0.00;0.00;;;;;32.16;35.01;100982.63;5117852;27;8932;-63
2022/08/06 11:33:00;;;;;;;;;1.00;1.00;;;;;31.05;36.77;100991.53;5118034;27;8974;-62
2022/08/06 11:35:29;;;;;;;;;0.00;0.00;;;;;29.63;39.31;100993.50;5097235;28;8868;-62
2022/08/06 11:37:58;;;;;;;;;0.60;0.60;;;;;28.36;40.97;100988.75;5095732;28;8830;-62
2022/08/06 11:40:45;;;;;;;;;0.00;0.00;;;;;27.20;43.36;101003.78;5097342;28;8826;-62
2022/08/06 11:43:15;;;;;;;;;0.00;0.00;;;;;26.35;44.40;100996.84;5096503;28;9491;-62
2022/08/06 11:45:46;;;;;;;;;0.00;0.00;;;;;25.87;45.13;100997.63;5097100;28;8822;-62
2022/08/06 11:48:33;;;;;;;;;0.00;0.00;;;;;27.16;42.67;100980.59;5105622;28;8966;-62
2022/08/06 11:51:01;;;;;;;;;0.00;0.00;;;;;28.74;39.31;100976.03;5117612;28;8867;-63
2022/08/06 11:53:30;;;;;;;;;0.00;0.00;;;;;30.10;37.65;100982.03;5117605;28;8973;-62
2022/08/06 11:56:12;;;;;;;;;0.40;0.40;;;;;31.36;35.57;100980.38;5113557;28;8954;-62
2022/08/06 11:58:42;;;;;;;;;0.00;0.00;;;;;32.20;34.93;100981.06;5101437;28;8852;-62
2022/08/06 12:01:11;;;;;;;;;0.20;0.20;;;;;32.93;34.28;100968.56;5108794;28;8826;-65
2022/08/06 12:03:58;;;;;;;;;0.00;0.00;;;;;33.44;32.84;100966.66;5098006;28;8868;-62
2022/08/06 12:06:30;;;;;;;;;0.00;0.00;;;;;33.81;31.65;100967.13;5115370;28;8816;-62
2022/08/06 12:08:58;;;;;;;;;0.00;0.00;;;;;33.69;32.87;100969.06;5115421;28;8811;-62
2022/08/06 12:11:35;;;;;;;;;0.00;0.00;;;;;32.30;35.24;100967.53;5103298;28;8818;-62